Startpagina
METAR-TAF:

METAR-TAF

Vliegvelden :

Sønderborg Lufthavn

Sønderborg, Denemarken

breedte: 54-58N, lengte: 009-47E, hoogte: 7 m

Actueel weer

Dit bericht is 16 minuten geleden gemaakt, om 21:50 UTC
Wind 5 kt uit het zuidwesten, variërend tussen het zuiden en het westzuidwesten
Temperatuur 9°C
Vochtigheid 93%
Druk 988 hPa
Zicht: 7000 m
zware regen

METAR: EKSB 052150Z AUTO 22005KT 170V250 7000NDV +RA BKN012/// 09/08 Q0988

Tijdstip: 00:06 (22:06 UTC)


TAF: ontbreekt

Waarnemingen en weersverwachtingen van meer dan 4000 vliegvelden (METAR en TAF).

De beschikbare stations zijn de gele en rode punten op de kaart.

Ga met uw muis naar het station om de naam te zien.

Klik dan om waarnemingen en weersverwachtingen te zien.

kaart wijzigen: klik op de groene knoppen met een zwart kruis om in te zoomen, op de groene knop met een streepje om uit te zoomen of op de groene pijlen voor aangrenzende kaarten.


METAR-TAF: